sensor_id;sensor_type;location;lat;lon;timestamp;pressure;altitude;pressure_sealevel;temperature;humidity
51147;BME280;37207;53.060;18.726;2022-12-10T00:01:19;100040.09;;;-0.28;92.38
51147;BME280;37207;53.060;18.726;2022-12-10T00:03:47;100039.67;;;-0.26;92.14
51147;BME280;37207;53.060;18.726;2022-12-10T00:06:16;100040.83;;;-0.26;92.18
51147;BME280;37207;53.060;18.726;2022-12-10T00:08:42;100039.89;;;-0.26;92.19
51147;BME280;37207;53.060;18.726;2022-12-10T00:11:11;100039.86;;;-0.24;92.12
51147;BME280;37207;53.060;18.726;2022-12-10T00:13:39;100039.39;;;-0.24;92.22
51147;BME280;37207;53.060;18.726;2022-12-10T00:16:08;100039.20;;;-0.23;92.19
51147;BME280;37207;53.060;18.726;2022-12-10T00:18:37;100038.52;;;-0.20;92.25
51147;BME280;37207;53.060;18.726;2022-12-10T00:21:06;100033.61;;;-0.19;92.29
51147;BME280;37207;53.060;18.726;2022-12-10T00:23:33;100034.92;;;-0.18;92.21
51147;BME280;37207;53.060;18.726;2022-12-10T00:26:11;100034.31;;;-0.17;92.14
51147;BME280;37207;53.060;18.726;2022-12-10T00:28:39;100037.16;;;-0.16;92.30
51147;BME280;37207;53.060;18.726;2022-12-10T00:31:08;100036.11;;;-0.14;92.43
51147;BME280;37207;53.060;18.726;2022-12-10T00:33:35;100038.59;;;-0.11;92.50
51147;BME280;37207;53.060;18.726;2022-12-10T00:36:13;100038.71;;;-0.09;92.35
51147;BME280;37207;53.060;18.726;2022-12-10T00:38:41;100042.14;;;-0.07;92.29
51147;BME280;37207;53.060;18.726;2022-12-10T00:41:09;100042.23;;;-0.04;92.53
51147;BME280;37207;53.060;18.726;2022-12-10T00:43:36;100042.30;;;-0.01;92.53
51147;BME280;37207;53.060;18.726;2022-12-10T00:46:04;100044.46;;;0.02;92.67
51147;BME280;37207;53.060;18.726;2022-12-10T00:48:31;100050.06;;;0.05;92.64
51147;BME280;37207;53.060;18.726;2022-12-10T00:51:02;100048.30;;;0.08;92.66
51147;BME280;37207;53.060;18.726;2022-12-10T00:53:30;100047.11;;;0.09;92.71
51147;BME280;37207;53.060;18.726;2022-12-10T00:55:58;100049.65;;;0.09;92.57
51147;BME280;37207;53.060;18.726;2022-12-10T00:58:29;100045.88;;;0.11;92.52
51147;BME280;37207;53.060;18.726;2022-12-10T01:03:41;100036.63;;;0.08;92.31
51147;BME280;37207;53.060;18.726;2022-12-10T01:06:10;100032.07;;;0.05;92.02
51147;BME280;37207;53.060;18.726;2022-12-10T01:08:38;100030.46;;;0.01;92.12
51147;BME280;37207;53.060;18.726;2022-12-10T01:11:05;100033.79;;;-0.02;92.00
51147;BME280;37207;53.060;18.726;2022-12-10T01:13:32;100032.36;;;-0.04;92.08
51147;BME280;37207;53.060;18.726;2022-12-10T01:16:03;100031.79;;;-0.05;92.02
51147;BME280;37207;53.060;18.726;2022-12-10T01:18:30;100031.11;;;-0.06;92.33
51147;BME280;37207;53.060;18.726;2022-12-10T01:21:05;100029.35;;;-0.07;92.07
51147;BME280;37207;53.060;18.726;2022-12-10T01:23:34;100031.30;;;-0.07;92.17
51147;BME280;37207;53.060;18.726;2022-12-10T01:26:03;100029.46;;;-0.09;92.18
51147;BME280;37207;53.060;18.726;2022-12-10T01:28:31;100023.35;;;-0.10;92.05
51147;BME280;37207;53.060;18.726;2022-12-10T01:31:03;100024.56;;;-0.11;92.19
51147;BME280;37207;53.060;18.726;2022-12-10T01:33:32;100025.58;;;-0.12;92.10
51147;BME280;37207;53.060;18.726;2022-12-10T01:36:29;100028.06;;;-0.12;92.37
51147;BME280;37207;53.060;18.726;2022-12-10T01:38:56;100025.19;;;-0.11;92.32
51147;BME280;37207;53.060;18.726;2022-12-10T01:41:50;100022.39;;;-0.11;92.45
51147;BME280;37207;53.060;18.726;2022-12-10T01:46:46;100024.83;;;-0.09;92.55
51147;BME280;37207;53.060;18.726;2022-12-10T01:51:43;100021.30;;;-0.08;92.43
51147;BME280;37207;53.060;18.726;2022-12-10T01:54:12;100021.59;;;-0.07;92.38
51147;BME280;37207;53.060;18.726;2022-12-10T01:56:43;100019.44;;;-0.08;92.52
51147;BME280;37207;53.060;18.726;2022-12-10T01:59:11;100017.40;;;-0.07;92.58
51147;BME280;37207;53.060;18.726;2022-12-10T02:01:58;100017.88;;;-0.07;92.49
51147;BME280;37207;53.060;18.726;2022-12-10T02:04:37;100019.61;;;-0.08;92.57
51147;BME280;37207;53.060;18.726;2022-12-10T02:07:19;100015.63;;;-0.11;92.49
51147;BME280;37207;53.060;18.726;2022-12-10T02:09:55;100010.86;;;-0.13;92.42
51147;BME280;37207;53.060;18.726;2022-12-10T02:15:25;100004.52;;;-0.19;92.40
51147;BME280;37207;53.060;18.726;2022-12-10T02:17:56;100001.98;;;-0.22;92.25
51147;BME280;37207;53.060;18.726;2022-12-10T02:20:26;100007.19;;;-0.23;92.49
51147;BME280;37207;53.060;18.726;2022-12-10T02:23:01;100001.92;;;-0.24;92.38
51147;BME280;37207;53.060;18.726;2022-12-10T02:25:37;100004.55;;;-0.23;92.56
51147;BME280;37207;53.060;18.726;2022-12-10T02:30:42;100004.95;;;-0.20;92.81
51147;BME280;37207;53.060;18.726;2022-12-10T02:33:09;100007.41;;;-0.17;92.68
51147;BME280;37207;53.060;18.726;2022-12-10T02:35:38;100004.05;;;-0.16;92.60
51147;BME280;37207;53.060;18.726;2022-12-10T02:38:12;100000.77;;;-0.15;92.53
51147;BME280;37207;53.060;18.726;2022-12-10T02:40:45;100003.02;;;-0.13;92.62
51147;BME280;37207;53.060;18.726;2022-12-10T02:43:13;100008.20;;;-0.11;92.91
51147;BME280;37207;53.060;18.726;2022-12-10T02:45:43;100009.61;;;-0.12;92.54
51147;BME280;37207;53.060;18.726;2022-12-10T02:48:13;100012.67;;;-0.11;92.72
51147;BME280;37207;53.060;18.726;2022-12-10T02:50:41;100012.34;;;-0.10;92.73
51147;BME280;37207;53.060;18.726;2022-12-10T02:53:07;100012.92;;;-0.08;92.80
51147;BME280;37207;53.060;18.726;2022-12-10T03:03:59;100015.27;;;-0.02;92.80
51147;BME280;37207;53.060;18.726;2022-12-10T03:06:32;100013.50;;;-0.00;92.86
51147;BME280;37207;53.060;18.726;2022-12-10T03:09:05;100016.20;;;0.01;92.77
51147;BME280;37207;53.060;18.726;2022-12-10T03:11:34;100005.57;;;0.00;92.63
51147;BME280;37207;53.060;18.726;2022-12-10T03:14:09;100008.73;;;0.01;92.65
51147;BME280;37207;53.060;18.726;2022-12-10T03:16:48;100005.11;;;0.03;92.82
51147;BME280;37207;53.060;18.726;2022-12-10T03:19:19;100005.74;;;0.06;92.91
51147;BME280;37207;53.060;18.726;2022-12-10T03:21:48;100006.80;;;0.06;92.61
51147;BME280;37207;53.060;18.726;2022-12-10T03:24:16;100007.16;;;0.08;92.54
51147;BME280;37207;53.060;18.726;2022-12-10T03:26:46;100010.02;;;0.08;92.51
51147;BME280;37207;53.060;18.726;2022-12-10T03:29:18;100018.70;;;0.09;92.61
51147;BME280;37207;53.060;18.726;2022-12-10T03:31:48;100017.23;;;0.11;92.66
51147;BME280;37207;53.060;18.726;2022-12-10T03:34:16;100017.14;;;0.12;92.56
51147;BME280;37207;53.060;18.726;2022-12-10T03:36:43;100019.36;;;0.13;92.52
51147;BME280;37207;53.060;18.726;2022-12-10T03:39:11;100018.80;;;0.14;92.53
51147;BME280;37207;53.060;18.726;2022-12-10T03:41:38;100018.75;;;0.13;92.37
51147;BME280;37207;53.060;18.726;2022-12-10T03:44:05;100018.35;;;0.14;92.44
51147;BME280;37207;53.060;18.726;2022-12-10T03:46:32;100019.33;;;0.15;92.36
51147;BME280;37207;53.060;18.726;2022-12-10T03:49:00;100020.61;;;0.13;92.32
51147;BME280;37207;53.060;18.726;2022-12-10T03:51:27;100023.92;;;0.10;92.09
51147;BME280;37207;53.060;18.726;2022-12-10T03:53:54;100028.40;;;0.09;92.15
51147;BME280;37207;53.060;18.726;2022-12-10T03:56:21;100026.13;;;0.07;92.06
51147;BME280;37207;53.060;18.726;2022-12-10T03:58:48;100021.65;;;0.06;92.25
51147;BME280;37207;53.060;18.726;2022-12-10T04:01:15;100020.60;;;0.05;92.05
51147;BME280;37207;53.060;18.726;2022-12-10T04:03:43;100025.34;;;0.04;92.08
51147;BME280;37207;53.060;18.726;2022-12-10T04:06:15;100024.89;;;0.03;91.93
51147;BME280;37207;53.060;18.726;2022-12-10T04:08:42;100027.64;;;0.02;92.02
51147;BME280;37207;53.060;18.726;2022-12-10T04:11:11;100029.98;;;0.01;92.12
51147;BME280;37207;53.060;18.726;2022-12-10T04:13:39;100027.92;;;0.00;92.12
51147;BME280;37207;53.060;18.726;2022-12-10T04:16:24;100029.27;;;-0.01;92.11
51147;BME280;37207;53.060;18.726;2022-12-10T04:19:01;100027.98;;;-0.02;91.94
51147;BME280;37207;53.060;18.726;2022-12-10T04:21:30;100030.55;;;-0.02;92.16
51147;BME280;37207;53.060;18.726;2022-12-10T04:24:18;100033.27;;;-0.02;92.16
51147;BME280;37207;53.060;18.726;2022-12-10T04:27:10;100028.21;;;-0.02;92.12
51147;BME280;37207;53.060;18.726;2022-12-10T04:29:38;100031.40;;;-0.02;92.11
51147;BME280;37207;53.060;18.726;2022-12-10T04:32:05;100038.53;;;-0.02;92.09
51147;BME280;37207;53.060;18.726;2022-12-10T04:34:32;100038.15;;;-0.02;92.15
51147;BME280;37207;53.060;18.726;2022-12-10T04:36:59;100037.07;;;-0.02;92.01
51147;BME280;37207;53.060;18.726;2022-12-10T04:39:27;100037.23;;;-0.03;92.15
51147;BME280;37207;53.060;18.726;2022-12-10T04:41:53;100037.29;;;-0.02;92.14
51147;BME280;37207;53.060;18.726;2022-12-10T04:44:20;100032.53;;;-0.01;92.13
51147;BME280;37207;53.060;18.726;2022-12-10T04:46:47;100034.44;;;-0.03;92.08
51147;BME280;37207;53.060;18.726;2022-12-10T04:49:16;100036.73;;;-0.04;91.74
51147;BME280;37207;53.060;18.726;2022-12-10T04:51:43;100038.64;;;-0.07;91.90
51147;BME280;37207;53.060;18.726;2022-12-10T04:54:10;100037.43;;;-0.08;91.92
51147;BME280;37207;53.060;18.726;2022-12-10T04:56:36;100039.73;;;-0.10;91.69
51147;BME280;37207;53.060;18.726;2022-12-10T04:59:04;100035.75;;;-0.12;91.81
51147;BME280;37207;53.060;18.726;2022-12-10T05:01:31;100035.00;;;-0.13;91.91
51147;BME280;37207;53.060;18.726;2022-12-10T05:04:00;100035.98;;;-0.15;91.96
51147;BME280;37207;53.060;18.726;2022-12-10T05:06:27;100036.64;;;-0.17;91.86
51147;BME280;37207;53.060;18.726;2022-12-10T05:08:54;100032.29;;;-0.19;91.88
51147;BME280;37207;53.060;18.726;2022-12-10T05:11:24;100036.56;;;-0.19;91.83
51147;BME280;37207;53.060;18.726;2022-12-10T05:13:52;100037.04;;;-0.19;92.09
51147;BME280;37207;53.060;18.726;2022-12-10T05:16:21;100039.42;;;-0.19;91.86
51147;BME280;37207;53.060;18.726;2022-12-10T05:18:48;100039.91;;;-0.20;91.89
51147;BME280;37207;53.060;18.726;2022-12-10T05:21:17;100034.59;;;-0.21;91.76
51147;BME280;37207;53.060;18.726;2022-12-10T05:23:47;100036.00;;;-0.21;91.71
51147;BME280;37207;53.060;18.726;2022-12-10T05:26:21;100037.80;;;-0.22;91.86
51147;BME280;37207;53.060;18.726;2022-12-10T05:28:50;100046.56;;;-0.22;91.63
51147;BME280;37207;53.060;18.726;2022-12-10T05:31:26;100051.08;;;-0.23;91.71
51147;BME280;37207;53.060;18.726;2022-12-10T05:33:54;100052.50;;;-0.24;91.75
51147;BME280;37207;53.060;18.726;2022-12-10T05:36:24;100056.83;;;-0.23;91.86
51147;BME280;37207;53.060;18.726;2022-12-10T05:38:52;100052.43;;;-0.25;91.63
51147;BME280;37207;53.060;18.726;2022-12-10T05:41:22;100051.27;;;-0.24;91.53
51147;BME280;37207;53.060;18.726;2022-12-10T05:43:49;100055.05;;;-0.24;91.85
51147;BME280;37207;53.060;18.726;2022-12-10T05:46:19;100055.70;;;-0.21;91.82
51147;BME280;37207;53.060;18.726;2022-12-10T05:48:46;100053.09;;;-0.19;91.78
51147;BME280;37207;53.060;18.726;2022-12-10T05:51:15;100051.47;;;-0.18;91.79
51147;BME280;37207;53.060;18.726;2022-12-10T05:53:43;100053.50;;;-0.15;91.79
51147;BME280;37207;53.060;18.726;2022-12-10T05:56:18;100052.96;;;-0.12;91.99
51147;BME280;37207;53.060;18.726;2022-12-10T05:58:47;100056.98;;;-0.08;91.85
51147;BME280;37207;53.060;18.726;2022-12-10T06:01:17;100055.32;;;-0.07;91.75
51147;BME280;37207;53.060;18.726;2022-12-10T06:03:44;100055.40;;;-0.07;91.66
51147;BME280;37207;53.060;18.726;2022-12-10T06:06:11;100055.27;;;-0.08;91.38
51147;BME280;37207;53.060;18.726;2022-12-10T06:08:39;100053.14;;;-0.09;91.40
51147;BME280;37207;53.060;18.726;2022-12-10T06:11:09;100060.92;;;-0.10;91.45
51147;BME280;37207;53.060;18.726;2022-12-10T06:13:37;100070.88;;;-0.12;91.49
51147;BME280;37207;53.060;18.726;2022-12-10T06:16:09;100076.38;;;-0.12;91.44
51147;BME280;37207;53.060;18.726;2022-12-10T06:18:37;100074.31;;;-0.12;91.40
51147;BME280;37207;53.060;18.726;2022-12-10T06:21:05;100079.20;;;-0.13;91.64
51147;BME280;37207;53.060;18.726;2022-12-10T06:23:34;100075.30;;;-0.12;91.57
51147;BME280;37207;53.060;18.726;2022-12-10T06:26:09;100073.29;;;-0.12;91.42
51147;BME280;37207;53.060;18.726;2022-12-10T06:28:37;100078.16;;;-0.11;91.44
51147;BME280;37207;53.060;18.726;2022-12-10T06:31:04;100077.85;;;-0.12;91.38
51147;BME280;37207;53.060;18.726;2022-12-10T06:33:31;100079.11;;;-0.12;91.34
51147;BME280;37207;53.060;18.726;2022-12-10T06:35:58;100079.67;;;-0.13;91.35
51147;BME280;37207;53.060;18.726;2022-12-10T06:38:25;100082.46;;;-0.13;91.01
51147;BME280;37207;53.060;18.726;2022-12-10T06:40:51;100081.19;;;-0.15;91.17
51147;BME280;37207;53.060;18.726;2022-12-10T06:43:19;100081.41;;;-0.17;91.22
51147;BME280;37207;53.060;18.726;2022-12-10T06:45:45;100081.94;;;-0.19;90.99
51147;BME280;37207;53.060;18.726;2022-12-10T06:48:12;100085.87;;;-0.22;91.07
51147;BME280;37207;53.060;18.726;2022-12-10T06:50:38;100088.69;;;-0.23;91.20
51147;BME280;37207;53.060;18.726;2022-12-10T06:53:05;100090.25;;;-0.23;91.10
51147;BME280;37207;53.060;18.726;2022-12-10T06:55:32;100088.92;;;-0.23;91.09
51147;BME280;37207;53.060;18.726;2022-12-10T06:57:59;100084.41;;;-0.22;91.20
51147;BME280;37207;53.060;18.726;2022-12-10T07:00:25;100084.08;;;-0.21;91.11
51147;BME280;37207;53.060;18.726;2022-12-10T07:02:52;100082.14;;;-0.22;91.08
51147;BME280;37207;53.060;18.726;2022-12-10T07:05:18;100076.34;;;-0.22;90.95
51147;BME280;37207;53.060;18.726;2022-12-10T07:07:45;100082.18;;;-0.23;91.06
51147;BME280;37207;53.060;18.726;2022-12-10T07:10:13;100084.20;;;-0.23;91.05
51147;BME280;37207;53.060;18.726;2022-12-10T07:12:39;100084.27;;;-0.23;91.07
51147;BME280;37207;53.060;18.726;2022-12-10T07:15:06;100084.98;;;-0.23;90.94
51147;BME280;37207;53.060;18.726;2022-12-10T07:17:33;100085.76;;;-0.23;91.15
51147;BME280;37207;53.060;18.726;2022-12-10T07:20:00;100088.67;;;-0.22;91.03
51147;BME280;37207;53.060;18.726;2022-12-10T07:22:26;100088.48;;;-0.21;91.16
51147;BME280;37207;53.060;18.726;2022-12-10T07:24:53;100090.24;;;-0.19;91.14
51147;BME280;37207;53.060;18.726;2022-12-10T07:27:19;100091.73;;;-0.20;91.01
51147;BME280;37207;53.060;18.726;2022-12-10T07:29:46;100094.77;;;-0.21;90.89
51147;BME280;37207;53.060;18.726;2022-12-10T07:32:13;100088.25;;;-0.21;90.92
51147;BME280;37207;53.060;18.726;2022-12-10T07:34:39;100091.84;;;-0.22;90.69
51147;BME280;37207;53.060;18.726;2022-12-10T07:37:06;100092.96;;;-0.23;90.38
51147;BME280;37207;53.060;18.726;2022-12-10T07:39:33;100095.20;;;-0.23;90.32
51147;BME280;37207;53.060;18.726;2022-12-10T07:41:59;100087.28;;;-0.22;90.18
51147;BME280;37207;53.060;18.726;2022-12-10T07:44:28;100085.88;;;-0.22;90.25
51147;BME280;37207;53.060;18.726;2022-12-10T07:46:55;100092.19;;;-0.20;90.02
51147;BME280;37207;53.060;18.726;2022-12-10T07:49:22;100092.80;;;-0.17;90.34
51147;BME280;37207;53.060;18.726;2022-12-10T07:51:49;100094.23;;;-0.16;90.24
51147;BME280;37207;53.060;18.726;2022-12-10T07:54:17;100092.81;;;-0.15;90.07
51147;BME280;37207;53.060;18.726;2022-12-10T07:56:44;100093.11;;;-0.13;90.14
51147;BME280;37207;53.060;18.726;2022-12-10T07:59:10;100092.66;;;-0.12;90.02
51147;BME280;37207;53.060;18.726;2022-12-10T08:01:37;100092.55;;;-0.10;90.04
51147;BME280;37207;53.060;18.726;2022-12-10T08:04:04;100091.02;;;-0.11;89.71
51147;BME280;37207;53.060;18.726;2022-12-10T08:06:30;100090.36;;;-0.09;89.71
51147;BME280;37207;53.060;18.726;2022-12-10T08:08:59;100092.51;;;-0.08;89.89
51147;BME280;37207;53.060;18.726;2022-12-10T08:11:26;100092.13;;;-0.05;89.79
51147;BME280;37207;53.060;18.726;2022-12-10T08:13:53;100086.92;;;-0.04;89.73
51147;BME280;37207;53.060;18.726;2022-12-10T08:16:21;100088.77;;;-0.04;89.57
51147;BME280;37207;53.060;18.726;2022-12-10T08:18:59;100094.40;;;-0.02;89.66
51147;BME280;37207;53.060;18.726;2022-12-10T08:21:28;100091.98;;;0.01;89.52
51147;BME280;37207;53.060;18.726;2022-12-10T08:28:07;100094.95;;;0.03;89.56
51147;BME280;37207;53.060;18.726;2022-12-10T08:30:35;100101.38;;;0.04;89.25
51147;BME280;37207;53.060;18.726;2022-12-10T08:33:01;100099.98;;;0.04;89.30
51147;BME280;37207;53.060;18.726;2022-12-10T08:35:28;100101.70;;;0.03;89.22
51147;BME280;37207;53.060;18.726;2022-12-10T08:37:54;100104.18;;;0.03;89.17
51147;BME280;37207;53.060;18.726;2022-12-10T08:40:21;100106.97;;;0.04;89.20
51147;BME280;37207;53.060;18.726;2022-12-10T08:42:48;100110.75;;;0.04;89.34
51147;BME280;37207;53.060;18.726;2022-12-10T08:45:14;100113.05;;;0.05;88.98
51147;BME280;37207;53.060;18.726;2022-12-10T08:47:41;100111.42;;;0.05;89.24
51147;BME280;37207;53.060;18.726;2022-12-10T08:50:07;100110.36;;;0.08;89.08
51147;BME280;37207;53.060;18.726;2022-12-10T08:52:34;100108.04;;;0.08;89.13
51147;BME280;37207;53.060;18.726;2022-12-10T08:55:00;100105.52;;;0.06;88.85
51147;BME280;37207;53.060;18.726;2022-12-10T08:57:27;100105.10;;;0.04;88.69
51147;BME280;37207;53.060;18.726;2022-12-10T08:59:54;100100.33;;;0.02;88.77
51147;BME280;37207;53.060;18.726;2022-12-10T09:02:20;100098.63;;;0.02;88.66
51147;BME280;37207;53.060;18.726;2022-12-10T09:04:47;100096.22;;;0.02;88.69
51147;BME280;37207;53.060;18.726;2022-12-10T09:07:16;100096.51;;;0.03;88.85
51147;BME280;37207;53.060;18.726;2022-12-10T09:09:42;100093.96;;;0.02;88.58
51147;BME280;37207;53.060;18.726;2022-12-10T09:12:09;100098.48;;;0.02;88.83
51147;BME280;37207;53.060;18.726;2022-12-10T09:14:36;100099.50;;;0.01;88.62
51147;BME280;37207;53.060;18.726;2022-12-10T09:17:04;100104.73;;;0.02;88.86
51147;BME280;37207;53.060;18.726;2022-12-10T09:19:31;100105.84;;;0.02;88.59
51147;BME280;37207;53.060;18.726;2022-12-10T09:21:58;100108.62;;;0.02;88.81
51147;BME280;37207;53.060;18.726;2022-12-10T09:24:24;100109.48;;;0.02;88.80
51147;BME280;37207;53.060;18.726;2022-12-10T09:26:51;100108.91;;;0.03;88.71
51147;BME280;37207;53.060;18.726;2022-12-10T09:29:17;100108.61;;;0.03;88.74
51147;BME280;37207;53.060;18.726;2022-12-10T09:31:44;100108.29;;;0.04;88.70
51147;BME280;37207;53.060;18.726;2022-12-10T09:34:11;100106.09;;;0.05;88.94
51147;BME280;37207;53.060;18.726;2022-12-10T09:36:38;100106.88;;;0.07;88.96
51147;BME280;37207;53.060;18.726;2022-12-10T09:39:04;100102.56;;;0.10;88.92
51147;BME280;37207;53.060;18.726;2022-12-10T09:47:04;100105.42;;;0.16;89.13
51147;BME280;37207;53.060;18.726;2022-12-10T09:52:01;100105.58;;;0.16;88.90
51147;BME280;37207;53.060;18.726;2022-12-10T09:54:38;100102.70;;;0.17;88.91
51147;BME280;37207;53.060;18.726;2022-12-10T09:57:14;100101.86;;;0.16;88.75
51147;BME280;37207;53.060;18.726;2022-12-10T09:59:50;100100.08;;;0.18;88.80
51147;BME280;37207;53.060;18.726;2022-12-10T10:02:29;100100.42;;;0.20;89.00
51147;BME280;37207;53.060;18.726;2022-12-10T10:05:19;100100.23;;;0.22;88.95
51147;BME280;37207;53.060;18.726;2022-12-10T10:07:51;100100.11;;;0.23;88.98
51147;BME280;37207;53.060;18.726;2022-12-10T10:10:26;100101.53;;;0.25;89.17
51147;BME280;37207;53.060;18.726;2022-12-10T10:12:55;100098.75;;;0.28;89.22
51147;BME280;37207;53.060;18.726;2022-12-10T10:15:29;100101.91;;;0.32;89.41
51147;BME280;37207;53.060;18.726;2022-12-10T10:17:58;100099.30;;;0.36;89.53
51147;BME280;37207;53.060;18.726;2022-12-10T10:20:28;100099.65;;;0.38;89.31
51147;BME280;37207;53.060;18.726;2022-12-10T10:22:57;100103.92;;;0.38;89.17
51147;BME280;37207;53.060;18.726;2022-12-10T10:25:24;100103.23;;;0.38;89.17
51147;BME280;37207;53.060;18.726;2022-12-10T10:27:51;100104.58;;;0.37;89.04
51147;BME280;37207;53.060;18.726;2022-12-10T10:30:21;100101.08;;;0.37;88.99
51147;BME280;37207;53.060;18.726;2022-12-10T10:32:57;100099.38;;;0.40;89.03
51147;BME280;37207;53.060;18.726;2022-12-10T10:35:42;100096.61;;;0.42;89.15
51147;BME280;37207;53.060;18.726;2022-12-10T10:38:18;100099.46;;;0.43;89.19
51147;BME280;37207;53.060;18.726;2022-12-10T10:40:50;100100.70;;;0.43;88.99
51147;BME280;37207;53.060;18.726;2022-12-10T10:43:32;100099.80;;;0.42;88.89
51147;BME280;37207;53.060;18.726;2022-12-10T10:46:06;100100.86;;;0.40;89.00
51147;BME280;37207;53.060;18.726;2022-12-10T10:48:36;100099.88;;;0.39;89.01
51147;BME280;37207;53.060;18.726;2022-12-10T10:53:51;100090.06;;;0.40;89.16
51147;BME280;37207;53.060;18.726;2022-12-10T10:56:22;100085.70;;;0.40;88.98
51147;BME280;37207;53.060;18.726;2022-12-10T11:01:42;100085.58;;;0.39;88.78
51147;BME280;37207;53.060;18.726;2022-12-10T11:04:09;100079.94;;;0.38;89.01
51147;BME280;37207;53.060;18.726;2022-12-10T11:06:36;100071.91;;;0.39;89.09
51147;BME280;37207;53.060;18.726;2022-12-10T11:09:04;100073.72;;;0.42;89.17
51147;BME280;37207;53.060;18.726;2022-12-10T11:14:29;100067.06;;;0.44;89.24
51147;BME280;37207;53.060;18.726;2022-12-10T11:19:44;100064.60;;;0.43;89.08
51147;BME280;37207;53.060;18.726;2022-12-10T11:22:21;100060.88;;;0.43;89.01
51147;BME280;37207;53.060;18.726;2022-12-10T11:24:49;100061.50;;;0.46;89.19
51147;BME280;37207;53.060;18.726;2022-12-10T11:27:37;100056.96;;;0.50;89.29
51147;BME280;37207;53.060;18.726;2022-12-10T11:30:15;100056.46;;;0.53;89.10
51147;BME280;37207;53.060;18.726;2022-12-10T11:40:58;100044.66;;;0.51;88.94
51147;BME280;37207;53.060;18.726;2022-12-10T11:43:44;100048.23;;;0.48;88.70
51147;BME280;37207;53.060;18.726;2022-12-10T11:46:29;100053.35;;;0.46;88.73
51147;BME280;37207;53.060;18.726;2022-12-10T11:49:16;100058.73;;;0.45;88.67
51147;BME280;37207;53.060;18.726;2022-12-10T11:52:16;100059.33;;;0.43;88.36
51147;BME280;37207;53.060;18.726;2022-12-10T11:55:34;100056.90;;;0.40;88.67
51147;BME280;37207;53.060;18.726;2022-12-10T11:58:32;100055.00;;;0.39;89.01
51147;BME280;37207;53.060;18.726;2022-12-10T12:15:37;100055.23;;;0.30;88.72
51147;BME280;37207;53.060;18.726;2022-12-10T12:18:21;100057.05;;;0.29;88.71
51147;BME280;37207;53.060;18.726;2022-12-10T12:20:54;100058.48;;;0.27;88.57
51147;BME280;37207;53.060;18.726;2022-12-10T12:26:28;100064.84;;;0.24;88.43
51147;BME280;37207;53.060;18.726;2022-12-10T12:29:12;100062.79;;;0.23;88.33
51147;BME280;37207;53.060;18.726;2022-12-10T12:31:44;100060.98;;;0.20;88.31
51147;BME280;37207;53.060;18.726;2022-12-10T12:37:12;100058.56;;;0.18;88.43
51147;BME280;37207;53.060;18.726;2022-12-10T12:39:52;100058.24;;;0.18;88.52
51147;BME280;37207;53.060;18.726;2022-12-10T12:42:46;100056.75;;;0.19;88.71
51147;BME280;37207;53.060;18.726;2022-12-10T12:45:20;100057.31;;;0.18;88.48
51147;BME280;37207;53.060;18.726;2022-12-10T12:47:53;100054.27;;;0.17;88.47
51147;BME280;37207;53.060;18.726;2022-12-10T12:53:01;100053.88;;;0.14;88.38
51147;BME280;37207;53.060;18.726;2022-12-10T12:55:33;100055.70;;;0.12;88.26
51147;BME280;37207;53.060;18.726;2022-12-10T13:01:06;100067.00;;;0.14;88.69
51147;BME280;37207;53.060;18.726;2022-12-10T13:03:42;100067.06;;;0.14;88.75
51147;BME280;37207;53.060;18.726;2022-12-10T13:06:30;100065.52;;;0.14;88.73
51147;BME280;37207;53.060;18.726;2022-12-10T13:11:44;100069.59;;;0.12;88.77
51147;BME280;37207;53.060;18.726;2022-12-10T13:14:36;100074.17;;;0.12;88.90
51147;BME280;37207;53.060;18.726;2022-12-10T13:17:22;100072.63;;;0.12;88.71
51147;BME280;37207;53.060;18.726;2022-12-10T13:19:50;100079.23;;;0.11;88.85
51147;BME280;37207;53.060;18.726;2022-12-10T13:27:36;100088.69;;;0.09;88.66
51147;BME280;37207;53.060;18.726;2022-12-10T13:42:45;100098.77;;;0.12;88.85
51147;BME280;37207;53.060;18.726;2022-12-10T13:45:35;100103.86;;;0.13;89.01
51147;BME280;37207;53.060;18.726;2022-12-10T13:48:25;100099.11;;;0.14;89.02
51147;BME280;37207;53.060;18.726;2022-12-10T13:51:13;100098.48;;;0.15;89.15
51147;BME280;37207;53.060;18.726;2022-12-10T13:54:07;100096.46;;;0.15;88.99
51147;BME280;37207;53.060;18.726;2022-12-10T13:56:42;100101.70;;;0.13;88.86
51147;BME280;37207;53.060;18.726;2022-12-10T13:59:16;100105.20;;;0.12;88.89
51147;BME280;37207;53.060;18.726;2022-12-10T14:01:59;100099.54;;;0.13;88.90
51147;BME280;37207;53.060;18.726;2022-12-10T14:07:11;100097.38;;;0.12;88.89
51147;BME280;37207;53.060;18.726;2022-12-10T14:09:46;100098.32;;;0.12;88.74
51147;BME280;37207;53.060;18.726;2022-12-10T14:12:17;100097.77;;;0.12;88.92
51147;BME280;37207;53.060;18.726;2022-12-10T14:14:48;100105.02;;;0.11;88.72
51147;BME280;37207;53.060;18.726;2022-12-10T14:17:20;100106.20;;;0.10;89.03
51147;BME280;37207;53.060;18.726;2022-12-10T14:19:50;100105.39;;;0.08;88.90
51147;BME280;37207;53.060;18.726;2022-12-10T14:22:30;100110.47;;;0.07;88.92
51147;BME280;37207;53.060;18.726;2022-12-10T14:25:01;100110.30;;;0.07;89.09
51147;BME280;37207;53.060;18.726;2022-12-10T14:27:30;100112.45;;;0.08;89.05
51147;BME280;37207;53.060;18.726;2022-12-10T14:30:14;100113.79;;;0.07;88.92
51147;BME280;37207;53.060;18.726;2022-12-10T14:32:41;100112.73;;;0.06;89.09
51147;BME280;37207;53.060;18.726;2022-12-10T14:35:23;100116.42;;;0.07;88.89
51147;BME280;37207;53.060;18.726;2022-12-10T14:37:52;100122.75;;;0.09;88.99
51147;BME280;37207;53.060;18.726;2022-12-10T14:40:27;100122.92;;;0.11;89.13
51147;BME280;37207;53.060;18.726;2022-12-10T14:43:04;100129.16;;;0.14;89.24
51147;BME280;37207;53.060;18.726;2022-12-10T14:45:42;100125.69;;;0.16;89.17
51147;BME280;37207;53.060;18.726;2022-12-10T14:48:13;100125.79;;;0.20;89.30